Ridgeland, South Carolina
Current Conditions -  °F | °C
As of 6:56 PM on Monday 20 Oct 2014 (Local Time) from KNBC Reporting Station
Broken Clouds Broken Clouds  
Wind Chill: 72°   Ceiling: 18000
Heat Index: 72°   Visibility: 10mi
Dew Point: 62°   Wind: 0mph
Humidity: 71%   Direction: NA
Pressure: 29.99"   Gusts: NA
Location:  32.48°N, 80.98°W
Report Text: KNBC 202256Z 00000KT 10SM FEW035 SCT100 BKN180 BKN250 22/17 A2999 RMK AO2 SLP155 T02220167 $
Loading
Personal Weather Stations






























Interactive Weather Map
Tropical Storm Tracking
New forecast layout! Learn more

10-Day Weather Forecast

Advertisements
Track Severe Weather on mobile